createdAt,value
2019-06-27T00:01:49.925Z,80.80
2019-06-27T00:04:19.880Z,80.50
2019-06-27T00:06:49.789Z,80.60
2019-06-27T00:09:20.361Z,80.80
2019-06-27T00:11:50.344Z,81.20
2019-06-27T00:14:20.246Z,81.40
2019-06-27T00:16:50.256Z,81.70
2019-06-27T00:19:20.165Z,81.60
2019-06-27T00:21:50.141Z,82.80
2019-06-27T00:24:20.044Z,82.60
2019-06-27T00:26:57.246Z,82.30
2019-06-27T00:29:21.579Z,82.60
2019-06-27T00:31:51.505Z,83.50
2019-06-27T00:34:21.444Z,83.20
2019-06-27T00:36:51.374Z,83.40
2019-06-27T00:39:21.327Z,83.50
2019-06-27T00:44:20.614Z,83.40
2019-06-27T00:46:50.524Z,84.30
2019-06-27T00:49:20.454Z,84.30
2019-06-27T00:51:50.447Z,84.70
2019-06-27T00:54:20.356Z,85.30
2019-06-27T00:56:50.448Z,85.30
2019-06-27T00:59:20.504Z,85.60
2019-06-27T01:09:36.892Z,86.80
2019-06-27T01:14:48.631Z,87.70
2019-06-27T01:19:53.804Z,88.70
2019-06-27T01:24:59.129Z,89.30
2019-06-27T01:27:30.500Z,89.60
2019-06-27T01:30:00.608Z,90.00
2019-06-27T01:37:42.221Z,91.20
2019-06-27T01:40:12.391Z,90.80
2019-06-27T01:42:42.385Z,91.10
2019-06-27T01:45:30.944Z,91.00
2019-06-27T01:48:00.842Z,91.20
2019-06-27T01:50:30.824Z,91.40
2019-06-27T01:53:00.773Z,91.70
2019-06-27T01:55:30.736Z,91.80
2019-06-27T01:58:00.745Z,91.90
2019-06-27T02:00:30.921Z,91.90
2019-06-27T02:05:36.624Z,92.10
2019-06-27T02:08:10.912Z,92.30
2019-06-27T02:10:41.120Z,92.30
2019-06-27T02:13:16.340Z,92.50
2019-06-27T02:15:46.424Z,92.50
2019-06-27T02:18:16.411Z,92.40
2019-06-27T02:20:46.316Z,93.10
2019-06-27T02:23:16.410Z,92.70
2019-06-27T02:25:46.375Z,93.00
2019-06-27T02:28:16.360Z,93.10
2019-06-27T02:30:46.808Z,93.00
2019-06-27T02:33:16.702Z,92.90
2019-06-27T02:35:46.617Z,93.00
2019-06-27T02:38:16.572Z,93.30
2019-06-27T02:40:46.449Z,93.40
2019-06-27T02:43:16.533Z,93.50
2019-06-27T02:45:46.494Z,93.50
2019-06-27T02:48:16.508Z,93.60
2019-06-27T02:50:46.455Z,93.70
2019-06-27T02:53:16.349Z,93.90
2019-06-27T02:55:46.238Z,93.90
2019-06-27T02:58:29.606Z,94.10
2019-06-27T03:00:47.721Z,94.10
2019-06-27T03:03:17.682Z,93.90
2019-06-27T03:05:47.573Z,94.20
2019-06-27T03:08:17.579Z,94.40
2019-06-27T03:10:47.540Z,94.60
2019-06-27T03:13:17.609Z,95.00
2019-06-27T03:15:47.525Z,94.70
2019-06-27T03:18:17.447Z,94.90
2019-06-27T03:20:47.498Z,95.20
2019-06-27T03:23:17.478Z,95.20
2019-06-27T03:25:47.381Z,95.30
2019-06-27T03:28:17.277Z,95.40
2019-06-27T03:30:47.309Z,95.70
2019-06-27T03:33:17.389Z,95.90
2019-06-27T03:35:47.335Z,95.90
2019-06-27T03:38:17.269Z,96.00
2019-06-27T03:40:47.356Z,96.40
2019-06-27T03:43:17.281Z,96.80
2019-06-27T03:45:47.258Z,96.50
2019-06-27T03:48:17.748Z,96.50
2019-06-27T03:50:47.659Z,96.40
2019-06-27T03:53:17.624Z,96.60
2019-06-27T03:55:47.563Z,96.70
2019-06-27T03:58:17.570Z,97.20
2019-06-27T04:00:47.618Z,97.10
2019-06-27T04:03:17.529Z,97.00
2019-06-27T04:05:47.474Z,97.20
2019-06-27T04:08:17.400Z,97.20
2019-06-27T04:10:47.494Z,97.50
2019-06-27T04:13:17.641Z,97.50
2019-06-27T04:18:16.990Z,97.60
2019-06-27T04:20:46.970Z,98.00
2019-06-27T04:23:16.888Z,97.90
2019-06-27T04:25:46.940Z,98.40
2019-06-27T04:28:17.185Z,98.20
2019-06-27T04:30:47.197Z,98.20
2019-06-27T04:33:17.212Z,98.10
2019-06-27T04:35:47.176Z,98.20
2019-06-27T04:38:17.080Z,98.20
2019-06-27T04:40:46.995Z,97.90
2019-06-27T04:43:16.876Z,97.50
2019-06-27T04:45:46.821Z,97.60
2019-06-27T04:48:16.686Z,97.80
2019-06-27T04:50:46.594Z,98.20
2019-06-27T04:53:16.551Z,97.70
2019-06-27T04:55:46.563Z,97.70
2019-06-27T04:58:16.456Z,97.60
2019-06-27T05:00:46.370Z,97.70
2019-06-27T05:03:16.568Z,97.80
2019-06-27T05:05:46.555Z,97.80
2019-06-27T05:08:16.441Z,97.30
2019-06-27T05:10:46.370Z,97.50
2019-06-27T05:13:16.252Z,97.10
2019-06-27T05:15:46.193Z,96.90
2019-06-27T05:18:16.130Z,96.90
2019-06-27T05:20:46.152Z,96.40
2019-06-27T05:23:16.044Z,96.40
2019-06-27T05:25:45.925Z,96.40
2019-06-27T05:28:15.808Z,96.10
2019-06-27T05:30:45.720Z,95.90
2019-06-27T05:33:15.703Z,95.80
2019-06-27T05:35:45.604Z,95.80
2019-06-27T05:38:15.504Z,95.70
2019-06-27T05:40:45.450Z,96.10
2019-06-27T05:43:15.431Z,95.50
2019-06-27T05:45:45.322Z,95.50
2019-06-27T05:48:15.389Z,95.10
2019-06-27T05:50:45.265Z,94.80
2019-06-27T05:53:15.296Z,94.80
2019-06-27T05:55:45.284Z,94.70
2019-06-27T05:58:15.271Z,95.00
2019-06-27T06:00:45.151Z,94.70
2019-06-27T06:03:15.071Z,94.80
2019-06-27T06:05:44.988Z,94.40
2019-06-27T06:08:14.903Z,94.70
2019-06-27T06:10:44.802Z,94.80
2019-06-27T06:13:14.761Z,94.10
2019-06-27T06:15:44.875Z,94.20
2019-06-27T06:18:15.163Z,94.20
2019-06-27T06:20:45.084Z,94.10
2019-06-27T06:23:15.083Z,94.30
2019-06-27T06:25:45.096Z,93.80
2019-06-27T06:28:15.369Z,93.90
2019-06-27T06:30:45.493Z,93.80
2019-06-27T06:33:15.588Z,94.00
2019-06-27T06:35:45.545Z,93.60
2019-06-27T06:38:15.420Z,93.30
2019-06-27T06:40:45.610Z,93.10
2019-06-27T06:43:16.255Z,93.20
2019-06-27T06:45:46.220Z,93.10
2019-06-27T06:48:16.188Z,92.80
2019-06-27T06:50:52.203Z,92.70
2019-06-27T06:53:22.151Z,92.60
2019-06-27T06:55:52.400Z,92.50
2019-06-27T06:58:22.351Z,93.10
2019-06-27T07:01:01.482Z,92.50
2019-06-27T07:03:23.902Z,92.10
2019-06-27T07:05:53.829Z,92.00
2019-06-27T07:08:23.804Z,91.80
2019-06-27T07:10:53.670Z,91.80
2019-06-27T07:13:23.840Z,91.40
2019-06-27T07:15:53.731Z,91.20
2019-06-27T07:18:23.728Z,91.20
2019-06-27T07:20:53.596Z,91.20
2019-06-27T07:23:23.470Z,91.10
2019-06-27T07:25:53.412Z,90.90
2019-06-27T07:28:23.314Z,90.60
2019-06-27T07:30:53.197Z,90.90
2019-06-27T07:33:23.121Z,90.90
2019-06-27T07:35:53.040Z,90.60
2019-06-27T07:38:22.977Z,90.80
2019-06-27T07:40:52.944Z,91.00
2019-06-27T07:43:22.879Z,90.10
2019-06-27T07:45:52.955Z,90.20
2019-06-27T07:48:22.941Z,90.30
2019-06-27T07:50:52.939Z,89.00
2019-06-27T07:53:22.974Z,89.20
2019-06-27T07:55:52.955Z,88.80
2019-06-27T07:58:22.872Z,88.30
2019-06-27T08:00:52.817Z,87.80
2019-06-27T08:03:22.790Z,87.60
2019-06-27T08:05:52.776Z,86.70
2019-06-27T08:08:22.778Z,87.00
2019-06-27T08:10:52.875Z,88.90
2019-06-27T08:13:23.042Z,86.30
2019-06-27T08:15:52.943Z,86.00
2019-06-27T08:18:22.992Z,86.40
2019-06-27T08:20:52.922Z,85.40
2019-06-27T08:23:22.916Z,86.30
2019-06-27T08:25:52.913Z,84.70
2019-06-27T08:28:22.851Z,85.40
2019-06-27T08:30:52.895Z,84.70
2019-06-27T08:33:22.970Z,85.00
2019-06-27T08:35:53.057Z,84.30
2019-06-27T08:38:23.070Z,85.30
2019-06-27T08:40:53.003Z,84.60
2019-06-27T08:43:22.892Z,85.40
2019-06-27T08:45:53.000Z,85.40
2019-06-27T08:48:23.011Z,85.10
2019-06-27T08:50:53.056Z,83.90
2019-06-27T08:53:23.114Z,83.40
2019-06-27T08:55:53.166Z,83.20
2019-06-27T08:58:23.112Z,84.40
2019-06-27T09:00:53.094Z,81.30
2019-06-27T09:03:23.135Z,83.90
2019-06-27T09:05:53.073Z,82.00
2019-06-27T09:08:23.036Z,85.60
2019-06-27T09:10:52.991Z,81.10
2019-06-27T09:13:23.068Z,80.10
2019-06-27T09:15:52.995Z,79.80
2019-06-27T09:18:22.909Z,80.90
2019-06-27T09:20:52.951Z,81.60
2019-06-27T09:23:23.067Z,79.60
2019-06-27T09:25:53.064Z,79.40
2019-06-27T09:28:22.994Z,80.30
2019-06-27T09:30:52.929Z,79.70
2019-06-27T09:33:22.895Z,81.30
2019-06-27T09:35:52.853Z,79.30
2019-06-27T09:38:22.858Z,76.40
2019-06-27T09:40:52.710Z,76.10
2019-06-27T09:43:22.701Z,75.30
2019-06-27T09:45:52.736Z,79.40
2019-06-27T09:48:22.714Z,75.90
2019-06-27T09:50:52.677Z,75.40
2019-06-27T09:53:22.668Z,74.30
2019-06-27T09:55:52.728Z,75.50
2019-06-27T09:58:22.607Z,75.50
2019-06-27T10:00:52.631Z,73.50
2019-06-27T10:03:22.538Z,74.60
2019-06-27T10:05:52.825Z,74.70
2019-06-27T10:08:22.807Z,72.60
2019-06-27T10:10:52.711Z,71.90
2019-06-27T10:13:22.607Z,71.60
2019-06-27T10:15:52.545Z,72.50
2019-06-27T10:18:22.578Z,69.60
2019-06-27T10:20:52.484Z,70.10
2019-06-27T10:23:22.372Z,68.40
2019-06-27T10:25:52.326Z,67.70
2019-06-27T10:28:22.223Z,67.70
2019-06-27T10:30:52.128Z,70.00
2019-06-27T10:33:22.084Z,69.30
2019-06-27T10:35:52.120Z,68.30
2019-06-27T10:38:22.011Z,69.10
2019-06-27T10:40:51.898Z,70.30
2019-06-27T10:43:21.863Z,67.80
2019-06-27T10:45:51.864Z,66.80
2019-06-27T10:48:21.972Z,67.10
2019-06-27T10:50:54.635Z,66.50
2019-06-27T10:53:23.567Z,70.60
2019-06-27T10:55:53.559Z,65.70
2019-06-27T10:58:23.503Z,66.00
2019-06-27T11:00:53.386Z,64.30
2019-06-27T11:03:23.298Z,68.00
2019-06-27T11:05:53.176Z,65.40
2019-06-27T11:08:23.049Z,64.20
2019-06-27T11:10:53.043Z,66.40
2019-06-27T11:13:23.028Z,70.00
2019-06-27T11:15:52.880Z,63.50
2019-06-27T11:18:22.875Z,68.40
2019-06-27T11:20:53.081Z,64.60
2019-06-27T11:23:23.087Z,64.10
2019-06-27T11:25:53.170Z,62.80
2019-06-27T11:28:23.058Z,62.20
2019-06-27T11:30:53.071Z,61.60
2019-06-27T11:33:32.560Z,59.70
2019-06-27T11:35:54.684Z,60.70
2019-06-27T11:38:24.967Z,61.50
2019-06-27T11:40:55.190Z,64.30
2019-06-27T11:43:25.092Z,62.30
2019-06-27T11:45:54.972Z,64.00
2019-06-27T11:48:24.864Z,60.10
2019-06-27T11:50:54.814Z,59.30
2019-06-27T11:53:24.711Z,57.50
2019-06-27T11:55:54.587Z,59.50
2019-06-27T11:58:24.794Z,54.80
2019-06-27T12:00:54.703Z,61.30
2019-06-27T12:03:24.615Z,57.60
2019-06-27T12:05:54.550Z,53.50
2019-06-27T12:08:24.435Z,63.10
2019-06-27T12:10:54.443Z,54.80
2019-06-27T12:13:24.335Z,53.90
2019-06-27T12:15:54.265Z,55.90
2019-06-27T12:18:24.231Z,56.30
2019-06-27T12:20:54.279Z,66.40
2019-06-27T12:23:24.193Z,53.60
2019-06-27T12:25:54.236Z,51.70
2019-06-27T12:28:24.135Z,51.40
2019-06-27T12:30:54.196Z,52.90
2019-06-27T12:33:24.131Z,53.90
2019-06-27T12:35:54.128Z,54.70
2019-06-27T12:38:25.323Z,55.00
2019-06-27T12:40:55.321Z,50.20
2019-06-27T12:43:25.203Z,53.50
2019-06-27T12:45:55.104Z,50.10
2019-06-27T12:48:25.000Z,48.60
2019-06-27T12:50:55.005Z,56.60
2019-06-27T12:53:25.055Z,53.40
2019-06-27T12:55:54.921Z,48.80
2019-06-27T12:58:24.992Z,50.50
2019-06-27T13:00:54.961Z,58.50
2019-06-27T13:03:24.860Z,50.70
2019-06-27T13:05:54.771Z,51.00
2019-06-27T13:08:24.757Z,49.20
2019-06-27T13:10:54.687Z,48.90
2019-06-27T13:13:24.656Z,52.20
2019-06-27T13:15:54.609Z,52.50
2019-06-27T13:18:24.487Z,58.10
2019-06-27T13:20:58.463Z,51.80
2019-06-27T13:23:25.948Z,49.10
2019-06-27T13:25:55.925Z,47.60
2019-06-27T13:28:25.870Z,49.90
2019-06-27T13:30:55.809Z,53.60
2019-06-27T13:33:25.672Z,48.70
2019-06-27T13:35:55.625Z,47.70
2019-06-27T13:38:25.492Z,50.10
2019-06-27T13:40:55.408Z,43.10
2019-06-27T13:43:25.428Z,50.40
2019-06-27T13:45:55.326Z,46.80
2019-06-27T13:48:25.283Z,45.30
2019-06-27T13:50:57.640Z,52.30
2019-06-27T13:53:26.891Z,45.70
2019-06-27T13:55:56.779Z,45.80
2019-06-27T13:58:26.660Z,46.10
2019-06-27T14:00:56.550Z,50.20
2019-06-27T14:03:26.433Z,48.20
2019-06-27T14:05:56.415Z,46.20
2019-06-27T14:08:26.486Z,49.40
2019-06-27T14:10:56.505Z,43.40
2019-06-27T14:13:26.475Z,47.20
2019-06-27T14:15:56.360Z,48.10
2019-06-27T14:18:26.227Z,45.30
2019-06-27T14:20:56.196Z,45.60
2019-06-27T14:23:26.072Z,50.90
2019-06-27T14:25:56.026Z,47.80
2019-06-27T14:28:25.944Z,48.40
2019-06-27T14:30:55.841Z,47.60
2019-06-27T14:33:25.938Z,45.90
2019-06-27T14:35:55.813Z,41.90
2019-06-27T14:38:25.705Z,43.20
2019-06-27T14:40:55.579Z,49.20
2019-06-27T14:43:25.469Z,44.40
2019-06-27T14:45:55.359Z,46.00
2019-06-27T14:48:25.231Z,45.00
2019-06-27T14:50:55.175Z,40.60
2019-06-27T14:53:25.206Z,42.10
2019-06-27T14:55:55.147Z,41.30
2019-06-27T14:58:25.015Z,42.50
2019-06-27T15:00:55.011Z,47.20
2019-06-27T15:03:25.133Z,39.80
2019-06-27T15:08:24.438Z,41.70
2019-06-27T15:10:54.431Z,41.10
2019-06-27T15:13:24.443Z,38.80
2019-06-27T15:16:07.426Z,35.10
2019-06-27T15:18:25.940Z,33.10
2019-06-27T15:20:55.876Z,32.10
2019-06-27T15:23:29.003Z,30.90
2019-06-27T15:25:57.491Z,28.90
2019-06-27T15:28:27.395Z,29.20
2019-06-27T15:30:57.459Z,28.50
2019-06-27T15:33:27.460Z,27.90
2019-06-27T15:35:57.420Z,27.30
2019-06-27T15:38:27.299Z,28.30
2019-06-27T15:40:57.195Z,28.40
2019-06-27T15:43:27.083Z,24.30
2019-06-27T15:45:57.087Z,20.80
2019-06-27T15:48:26.959Z,24.30
2019-06-27T15:50:56.920Z,21.40
2019-06-27T15:53:26.806Z,20.30
2019-06-27T15:55:56.808Z,23.10
2019-06-27T15:58:26.816Z,28.50
2019-06-27T16:00:56.810Z,25.30
2019-06-27T16:03:26.754Z,27.80
2019-06-27T16:06:08.648Z,29.60
2019-06-27T16:08:28.290Z,26.70
2019-06-27T16:10:58.166Z,26.40
2019-06-27T16:13:28.079Z,32.60
2019-06-27T16:15:57.960Z,26.80
2019-06-27T16:18:27.843Z,34.00
2019-06-27T16:20:57.736Z,29.20
2019-06-27T16:23:27.630Z,36.70
2019-06-27T16:25:57.514Z,35.00
2019-06-27T16:28:27.552Z,31.00
2019-06-27T16:30:57.479Z,31.30
2019-06-27T16:33:27.368Z,42.90
2019-06-27T16:38:26.815Z,45.00
2019-06-27T16:40:56.738Z,45.90
2019-06-27T16:43:26.712Z,43.70
2019-06-27T16:45:56.702Z,37.40
2019-06-27T16:48:26.605Z,37.00
2019-06-27T16:50:56.583Z,40.90
2019-06-27T16:53:26.481Z,36.50
2019-06-27T16:55:56.590Z,39.10
2019-06-27T16:58:26.512Z,36.50
2019-06-27T17:00:56.545Z,39.70
2019-06-27T17:03:26.538Z,37.60
2019-06-27T17:05:56.519Z,37.10
2019-06-27T17:08:26.388Z,38.10
2019-06-27T17:10:58.654Z,37.90
2019-06-27T17:13:28.019Z,35.80
2019-06-27T17:15:57.971Z,40.60
2019-06-27T17:18:27.965Z,40.80
2019-06-27T17:20:57.959Z,37.90
2019-06-27T17:23:27.855Z,39.20
2019-06-27T17:25:57.814Z,36.70
2019-06-27T17:28:27.683Z,37.40
2019-06-27T17:30:57.584Z,38.30
2019-06-27T17:33:27.475Z,38.20
2019-06-27T17:35:57.372Z,38.20
2019-06-27T17:38:27.336Z,37.80
2019-06-27T17:40:58.095Z,38.00
2019-06-27T17:43:27.963Z,36.00
2019-06-27T17:45:57.903Z,35.80
2019-06-27T17:48:27.791Z,36.90
2019-06-27T17:50:58.510Z,39.20
2019-06-27T17:53:28.413Z,36.80
2019-06-27T17:55:58.423Z,38.10
2019-06-27T17:58:28.304Z,40.40
2019-06-27T18:00:58.209Z,37.50
2019-06-27T18:03:28.083Z,40.80
2019-06-27T18:05:58.312Z,37.00
2019-06-27T18:08:28.330Z,37.80
2019-06-27T18:10:58.301Z,40.50
2019-06-27T18:13:28.206Z,41.30
2019-06-27T18:15:58.244Z,35.80
2019-06-27T18:18:28.153Z,35.20
2019-06-27T18:20:58.085Z,39.40
2019-06-27T18:23:28.060Z,38.20
2019-06-27T18:25:58.240Z,38.70
2019-06-27T18:28:28.115Z,38.10
2019-06-27T18:31:01.378Z,39.70
2019-06-27T18:33:31.264Z,38.30
2019-06-27T18:36:03.116Z,40.00
2019-06-27T18:38:32.822Z,41.90
2019-06-27T18:41:02.741Z,38.80
2019-06-27T18:43:32.763Z,38.20
2019-06-27T18:46:02.846Z,39.60
2019-06-27T18:48:32.721Z,39.20
2019-06-27T18:51:02.586Z,38.20
2019-06-27T18:53:32.506Z,38.70
2019-06-27T18:56:02.396Z,40.00
2019-06-27T18:58:32.278Z,39.70
2019-06-27T19:01:02.172Z,39.20
2019-06-27T19:03:52.056Z,37.60
2019-06-27T19:06:22.001Z,38.50
2019-06-27T19:08:51.893Z,39.50
2019-06-27T19:11:21.839Z,39.60
2019-06-27T19:13:51.720Z,39.00
2019-06-27T19:16:21.619Z,39.00
2019-06-27T19:18:55.990Z,39.40
2019-06-27T19:21:36.347Z,40.40
2019-06-27T19:24:43.536Z,39.40
2019-06-27T19:27:13.428Z,40.60
2019-06-27T19:29:43.371Z,39.70
2019-06-27T19:32:13.255Z,40.40
2019-06-27T19:34:43.219Z,39.40
2019-06-27T19:37:13.167Z,43.80
2019-06-27T19:39:43.067Z,40.30
2019-06-27T19:42:13.047Z,40.40
2019-06-27T19:44:43.019Z,39.90
2019-06-27T19:47:13.123Z,41.40
2019-06-27T19:49:43.267Z,40.60
2019-06-27T19:52:13.312Z,40.70
2019-06-27T19:54:43.290Z,41.50
2019-06-27T19:57:13.251Z,41.20
2019-06-27T19:59:43.239Z,41.00
2019-06-27T20:02:13.206Z,44.30
2019-06-27T20:04:43.090Z,42.50
2019-06-27T20:07:12.982Z,43.10
2019-06-27T20:09:43.081Z,42.30
2019-06-27T20:12:12.950Z,42.40
2019-06-27T20:14:42.851Z,43.00
2019-06-27T20:17:12.724Z,43.60
2019-06-27T20:19:42.618Z,42.80
2019-06-27T20:22:12.516Z,42.80
2019-06-27T20:24:42.390Z,43.30
2019-06-27T20:27:12.384Z,42.90
2019-06-27T20:29:42.247Z,43.50
2019-06-27T20:32:12.246Z,43.40
2019-06-27T20:34:42.155Z,43.20
2019-06-27T20:37:12.069Z,43.30
2019-06-27T20:39:41.983Z,45.50
2019-06-27T20:42:11.919Z,44.50
2019-06-27T20:44:41.811Z,43.70
2019-06-27T20:47:11.679Z,43.70
2019-06-27T20:49:41.552Z,45.40
2019-06-27T20:52:11.466Z,42.80
2019-06-27T20:54:41.355Z,43.50
2019-06-27T20:57:11.297Z,43.50
2019-06-27T20:59:41.207Z,42.20
2019-06-27T21:02:11.170Z,45.30
2019-06-27T21:04:41.061Z,42.70
2019-06-27T21:07:10.951Z,43.00
2019-06-27T21:09:40.855Z,42.80
2019-06-27T21:12:10.731Z,42.90
2019-06-27T21:14:40.604Z,43.10
2019-06-27T21:17:10.527Z,44.30
